Time;durP1;ratioP1;P1;durP2;ratioP2;P2;SDS_P1;SDS_P2;PMS_P1;PMS_P2;Temp;Humidity;BMP_temperature;BMP_pressure;BME280_temperature;BME280_humidity;BME280_pressure;Samples;Min_cycle;Max_cycle;Signal;HPM_P1;HPM_P2
2023/10/15 00:01:05;;;;;;;5.03;1.63;;;9.90;1.00;;;;;;4979340;28;20434;-90
2023/10/15 00:03:33;;;;;;;3.80;1.70;;;9.80;1.00;;;;;;4977857;28;20504;-88
2023/10/15 00:06:00;;;;;;;11.40;2.40;;;9.70;99.90;;;;;;4978004;28;20449;-89
2023/10/15 00:08:27;;;;;;;6.37;2.17;;;9.90;1.00;;;;;;4978264;28;20547;-89
2023/10/15 00:10:53;;;;;;;9.37;2.90;;;9.80;1.00;;;;;;4977644;28;20449;-88
2023/10/15 00:13:20;;;;;;;5.90;2.43;;;9.80;1.00;;;;;;4978341;28;20462;-89
2023/10/15 00:15:49;;;;;;;6.60;2.60;;;9.70;1.00;;;;;;4980630;28;20516;-89
2023/10/15 00:18:15;;;;;;;8.27;2.10;;;9.70;1.00;;;;;;4981804;28;20449;-88
2023/10/15 00:20:42;;;;;;;10.23;2.33;;;9.40;99.90;;;;;;4979306;28;20572;-88
2023/10/15 00:23:13;;;;;;;7.83;1.83;;;9.20;99.90;;;;;;4979126;28;20453;-88
2023/10/15 00:25:47;;;;;;;8.80;2.10;;;9.70;1.00;;;;;;4982658;28;20484;-88
2023/10/15 00:28:15;;;;;;;6.20;2.40;;;9.70;1.00;;;;;;4980905;28;20976;-89
2023/10/15 00:30:43;;;;;;;4.53;2.50;;;9.70;1.00;;;;;;4980265;28;20997;-89
2023/10/15 00:33:12;;;;;;;6.30;2.30;;;9.50;99.90;;;;;;4979530;28;20453;-89
2023/10/15 00:35:44;;;;;;;5.10;1.90;;;9.60;1.00;;;;;;4981515;28;20461;-89
2023/10/15 00:38:16;;;;;;;7.47;2.30;;;9.70;1.00;;;;;;4978886;28;20430;-88
2023/10/15 00:40:45;;;;;;;6.73;1.83;;;9.70;1.00;;;;;;4977497;28;20429;-89
2023/10/15 00:43:15;;;;;;;9.43;2.33;;;9.50;99.90;;;;;;4976872;28;20635;-89
2023/10/15 00:45:45;;;;;;;8.60;1.50;;;9.60;1.00;;;;;;4977430;28;20472;-88
2023/10/15 00:48:22;;;;;;;7.23;2.30;;;9.60;1.00;;;;;;4978637;28;20488;-89
2023/10/15 00:50:51;;;;;;;4.73;2.20;;;9.80;99.90;;;;;;4980178;28;20811;-89
2023/10/15 00:53:22;;;;;;;9.23;2.97;;;9.70;99.90;;;;;;4999283;28;20441;-88
2023/10/15 00:55:53;;;;;;;3.80;1.77;;;9.50;1.00;;;;;;4999862;28;20408;-88
2023/10/15 00:58:31;;;;;;;6.93;1.97;;;9.50;1.00;;;;;;4999606;28;20485;-89
2023/10/15 01:01:00;;;;;;;7.53;2.50;;;9.40;1.00;;;;;;4996402;28;20823;-89
2023/10/15 01:03:31;;;;;;;7.73;1.90;;;9.40;99.90;;;;;;4985632;28;20952;-89
2023/10/15 01:06:04;;;;;;;12.83;2.57;;;9.50;1.00;;;;;;4984912;28;20436;-89
2023/10/15 01:08:35;;;;;;;4.70;2.43;;;9.20;1.00;;;;;;4998453;28;20436;-88
2023/10/15 01:11:11;;;;;;;12.10;2.67;;;9.50;99.90;;;;;;4999663;28;20433;-89
2023/10/15 01:13:39;;;;;;;4.57;2.00;;;9.50;1.00;;;;;;5000097;28;20435;-88
2023/10/15 01:16:08;;;;;;;6.27;1.70;;;9.50;99.90;;;;;;5000306;28;20430;-88
2023/10/15 01:18:37;;;;;;;3.03;1.80;;;9.40;1.00;;;;;;5000254;28;20443;-88
2023/10/15 01:21:09;;;;;;;8.17;1.97;;;10.10;1.00;;;;;;5000137;28;20444;-88
2023/10/15 01:23:52;;;;;;;5.13;2.23;;;9.40;99.90;;;;;;4989923;28;20497;-89
2023/10/15 01:26:23;;;;;;;5.97;2.00;;;9.40;1.00;;;;;;4978518;28;20488;-89
2023/10/15 01:28:51;;;;;;;5.27;2.10;;;9.40;1.00;;;;;;4995279;28;20456;-89
2023/10/15 01:31:18;;;;;;;4.17;2.03;;;9.50;99.90;;;;;;5000102;28;20433;-89
2023/10/15 02:58:35;;;;;;;5.40;1.90;;;8.90;1.00;;;;;;3360868;26;20469;-92
2023/10/15 03:08:50;;;;;;;11.33;2.80;;;9.00;99.90;;;;;;4915738;29;20478;-92
2023/10/15 03:12:08;;;;;;;5.20;2.17;;;8.80;1.00;;;;;;4933141;28;20465;-91
2023/10/15 03:18:48;;;;;;;9.40;2.30;;;8.80;99.90;;;;;;4960362;28;20451;-91
2023/10/15 04:25:06;;;;;;;14.10;4.20;;;9.20;22.20;;;;;;4965422;23;20502;-89
2023/10/15 04:27:34;;;;;;;8.73;2.40;;;8.20;99.90;;;;;;4976740;28;20484;-88
2023/10/15 04:30:02;;;;;;;9.27;2.30;;;8.40;42.80;;;;;;4966209;29;20468;-89
2023/10/15 04:32:45;;;;;;;11.40;3.00;;;8.40;99.90;;;;;;4981460;28;20446;-88
2023/10/15 04:35:15;;;;;;;6.60;2.43;;;8.40;29.80;;;;;;4981541;28;20480;-89
2023/10/15 04:37:45;;;;;;;8.63;2.77;;;8.30;73.30;;;;;;4981570;28;20432;-89
2023/10/15 04:40:13;;;;;;;17.90;10.97;;;8.30;62.90;;;;;;4975696;28;20442;-88
2023/10/15 04:42:47;;;;;;;8.00;6.63;;;8.30;87.20;;;;;;4963964;29;20446;-89
2023/10/15 04:45:23;;;;;;;10.10;5.90;;;8.30;75.60;;;;;;4959800;28;20470;-90
2023/10/15 04:47:53;;;;;;;9.23;4.37;;;8.30;62.70;;;;;;4958571;29;20444;-88
2023/10/15 04:50:21;;;;;;;9.73;4.60;;;;;;;;;;4960154;29;20491;-89
2023/10/15 04:52:49;;;;;;;4.70;3.03;;;8.60;1.00;;;;;;4967827;29;20520;-89
2023/10/15 04:55:17;;;;;;;8.10;2.30;;;8.30;99.90;;;;;;4964760;28;20500;-89
2023/10/15 04:57:45;;;;;;;7.10;2.33;;;8.20;99.90;;;;;;4961474;29;20458;-90
2023/10/15 05:00:15;;;;;;;9.43;2.40;;;8.20;99.90;;;;;;4959812;29;20449;-90
2023/10/15 05:02:42;;;;;;;7.07;2.70;;;8.20;99.90;;;;;;4960192;29;20880;-89
2023/10/15 05:05:11;;;;;;;4.23;3.07;;;8.20;99.90;;;;;;4958125;28;20452;-90
2023/10/15 05:07:38;;;;;;;7.73;3.53;;;8.30;99.90;;;;;;4958188;29;20923;-89
2023/10/15 05:10:07;;;;;;;7.00;2.30;;;8.30;99.90;;;;;;4957893;29;20935;-90
2023/10/15 05:12:34;;;;;;;6.03;2.33;;;8.30;99.60;;;;;;4957079;29;21001;-89
2023/10/15 05:15:01;;;;;;;2.90;2.07;;;8.30;99.90;;;;;;4957259;28;20501;-89
2023/10/15 05:17:31;;;;;;;9.93;2.20;;;8.20;1.00;;;;;;4958757;29;20454;-89
2023/10/15 05:19:58;;;;;;;7.00;2.00;;;8.50;99.90;;;;;;4958118;29;20478;-90
2023/10/15 05:22:25;;;;;;;5.60;2.23;;;8.40;99.90;;;;;;4963884;29;20496;-89
2023/10/15 05:24:52;;;;;;;5.40;1.90;;;8.50;99.90;;;;;;4980591;28;20489;-89
2023/10/15 05:27:21;;;;;;;11.43;2.07;;;8.20;95.60;;;;;;4980486;28;20430;-89
2023/10/15 05:29:47;;;;;;;5.00;1.93;;;8.20;99.90;;;;;;4971019;28;20460;-89
2023/10/15 05:32:14;;;;;;;7.20;2.20;;;8.30;99.90;;;;;;4960924;29;20456;-89
2023/10/15 05:34:41;;;;;;;7.80;2.40;;;8.50;38.70;;;;;;4959625;28;20451;-89
2023/10/15 05:37:08;;;;;;;5.17;2.03;;;8.40;99.90;;;;;;4958310;29;20417;-90
2023/10/15 05:39:36;;;;;;;8.10;2.13;;;8.20;99.90;;;;;;4957716;29;20511;-89
2023/10/15 05:42:06;;;;;;;8.60;2.20;;;8.30;99.90;;;;;;4958003;29;20460;-89
2023/10/15 05:44:35;;;;;;;8.97;2.10;;;8.40;99.90;;;;;;4979597;28;20529;-89
2023/10/15 05:47:02;;;;;;;7.70;2.10;;;8.70;41.60;;;;;;4971551;29;20442;-89
2023/10/15 05:49:29;;;;;;;6.13;2.00;;;8.20;21.20;;;;;;4959236;29;21041;-89
2023/10/15 05:51:56;;;;;;;11.17;2.53;;;8.30;99.90;;;;;;4957457;29;20485;-88
2023/10/15 05:54:23;;;;;;;8.13;1.93;;;8.10;77.50;;;;;;4957267;28;20558;-89
2023/10/15 05:56:50;;;;;;;5.50;2.00;;;8.30;99.90;;;;;;4958413;29;20478;-87
2023/10/15 05:59:18;;;;;;;8.73;2.27;;;8.30;99.90;;;;;;4957436;29;20420;-89
2023/10/15 06:01:47;;;;;;;12.20;2.57;;;8.20;99.90;;;;;;4957097;29;21027;-90
2023/10/15 06:04:14;;;;;;;3.50;1.63;;;9.20;99.90;;;;;;4957058;28;20488;-89
2023/10/15 06:06:41;;;;;;;3.20;1.87;;;8.00;99.90;;;;;;4962432;29;20537;-89
2023/10/15 06:09:07;;;;;;;7.40;2.30;;;8.20;26.80;;;;;;4958018;29;20494;-89
2023/10/15 06:11:35;;;;;;;4.67;1.80;;;;;;;;;;4957388;29;20496;-89
2023/10/15 06:14:04;;;;;;;8.23;2.23;;;8.30;70.90;;;;;;4957160;28;20467;-89
2023/10/15 06:16:31;;;;;;;5.43;2.17;;;8.30;32.60;;;;;;4957592;29;20491;-89
2023/10/15 06:18:59;;;;;;;7.40;2.30;;;8.30;99.90;;;;;;4957264;29;20476;-89
2023/10/15 06:21:26;;;;;;;10.97;1.93;;;8.60;65.50;;;;;;4957482;29;20861;-89
2023/10/15 06:23:57;;;;;;;7.80;2.03;;;8.20;92.00;;;;;;4957390;28;20523;-89
2023/10/15 06:26:24;;;;;;;5.50;2.20;;;;;;;;;;4962523;29;20442;-90
2023/10/15 06:28:51;;;;;;;5.03;2.17;;;8.20;99.90;;;;;;4957736;29;20486;-89
2023/10/15 06:31:18;;;;;;;4.93;1.97;;;8.50;99.90;;;;;;4957125;29;20449;-90
2023/10/15 06:33:45;;;;;;;9.33;4.27;;;8.20;75.40;;;;;;4957124;28;20473;-89
2023/10/15 06:36:14;;;;;;;6.87;2.63;;;8.30;99.90;;;;;;4958777;29;20496;-89
2023/10/15 06:38:41;;;;;;;4.63;2.20;;;;;;;;;;4963473;29;20453;-89
2023/10/15 06:41:10;;;;;;;4.80;2.37;;;8.50;1.00;;;;;;4964895;28;20450;-89
2023/10/15 06:43:37;;;;;;;7.90;2.30;;;8.60;32.00;;;;;;4964949;28;20537;-90
2023/10/15 06:46:08;;;;;;;4.80;2.20;;;8.50;14.00;;;;;;4961404;29;20458;-90
2023/10/15 06:48:37;;;;;;;7.50;2.03;;;9.50;96.70;;;;;;4960068;29;20569;-89
2023/10/15 06:51:06;;;;;;;5.17;1.93;;;8.70;1.00;;;;;;4977087;28;20801;-88
2023/10/15 06:53:35;;;;;;;7.63;2.40;;;8.60;1.90;;;;;;4964696;28;20490;-89
2023/10/15 06:56:02;;;;;;;7.20;2.47;;;8.50;8.40;;;;;;4963672;29;20456;-90
2023/10/15 06:58:30;;;;;;;5.23;2.33;;;8.50;4.90;;;;;;4979275;28;20513;-89
2023/10/15 07:00:57;;;;;;;8.53;3.17;;;8.50;1.00;;;;;;4982733;28;20465;-88
2023/10/15 07:03:24;;;;;;;4.63;1.73;;;8.50;1.00;;;;;;4982558;28;20455;-88
2023/10/15 07:05:51;;;;;;;6.80;1.63;;;8.50;1.00;;;;;;4967663;28;20933;-89
2023/10/15 07:08:18;;;;;;;7.03;2.53;;;9.00;99.90;;;;;;4963358;29;20486;-90
2023/10/15 07:10:46;;;;;;;3.63;1.97;;;8.70;1.00;;;;;;4970884;28;20513;-88
2023/10/15 07:13:13;;;;;;;5.60;1.53;;;9.80;99.90;;;;;;4973199;28;20512;-88
2023/10/15 07:15:40;;;;;;;7.60;2.10;;;8.80;1.00;;;;;;4963182;29;20529;-89
2023/10/15 07:18:08;;;;;;;5.73;2.37;;;8.80;99.90;;;;;;4981048;28;20448;-89
2023/10/15 07:20:39;;;;;;;12.60;3.03;;;8.80;1.00;;;;;;4982810;28;20424;-87
2023/10/15 07:23:06;;;;;;;3.00;2.73;;;8.70;99.90;;;;;;4981928;28;20442;-87
2023/10/15 07:25:33;;;;;;;5.27;2.17;;;;;;;;;;4982831;28;20405;-87
2023/10/15 07:28:02;;;;;;;12.10;2.27;;;8.90;1.00;;;;;;4970339;28;20499;-88
2023/10/15 07:30:30;;;;;;;4.63;1.87;;;8.90;1.00;;;;;;4968313;29;20461;-89
2023/10/15 07:32:58;;;;;;;5.37;3.30;;;9.00;1.00;;;;;;4978968;28;20429;-89
2023/10/15 07:35:26;;;;;;;4.47;2.27;;;9.00;1.00;;;;;;4981265;29;20425;-89
2023/10/15 07:37:53;;;;;;;4.83;2.40;;;;;;;;;;4970184;29;20450;-89
2023/10/15 07:40:25;;;;;;;5.67;2.13;;;9.10;1.00;;;;;;4977976;28;20469;-89
2023/10/15 07:42:54;;;;;;;7.50;2.07;;;9.00;1.00;;;;;;4980390;28;20430;-89
2023/10/15 07:45:26;;;;;;;2.80;1.55;;;9.00;1.00;;;;;;4976953;28;20507;-90
2023/10/15 07:47:54;;;;;;;6.93;1.70;;;9.00;99.90;;;;;;4976971;29;20423;-90
2023/10/15 07:50:23;;;;;;;8.50;3.17;;;;;;;;;;4982084;28;20230;-91
2023/10/15 07:52:50;;;;;;;9.80;4.53;;;8.90;99.90;;;;;;4981621;28;20434;-91
2023/10/15 07:55:18;;;;;;;7.70;2.57;;;;;;;;;;4979528;28;20553;-90
2023/10/15 07:57:46;;;;;;;8.23;1.97;;;9.20;1.00;;;;;;4967664;29;20454;-90
2023/10/15 08:00:16;;;;;;;4.70;2.00;;;9.30;1.00;;;;;;4965815;29;20424;-91
2023/10/15 08:02:45;;;;;;;6.50;3.20;;;9.30;99.90;;;;;;4965000;29;20458;-91
2023/10/15 08:05:13;;;;;;;7.60;1.77;;;;;;;;;;4963367;28;20473;-90
2023/10/15 08:07:41;;;;;;;4.73;1.73;;;;;;;;;;4964007;29;20481;-90
2023/10/15 08:10:09;;;;;;;3.77;1.80;;;;;;;;;;4966126;29;20478;-90
2023/10/15 08:12:39;;;;;;;5.57;2.33;;;9.30;1.00;;;;;;4968977;29;20521;-90
2023/10/15 08:15:07;;;;;;;7.93;3.23;;;9.90;99.90;;;;;;4967964;28;20490;-90
2023/10/15 08:17:37;;;;;;;6.30;2.30;;;9.60;1.00;;;;;;4965298;29;20828;-89
2023/10/15 08:20:09;;;;;;;3.60;1.90;;;9.70;1.00;;;;;;4962669;29;20446;-91
2023/10/15 08:22:36;;;;;;;3.37;1.83;;;9.60;99.90;;;;;;4965873;29;20474;-90
2023/10/15 08:25:10;;;;;;;2.70;1.13;;;9.50;1.00;;;;;;4967129;28;20485;-90
2023/10/15 08:27:38;;;;;;;2.37;1.87;;;;;;;;;;4967036;29;20466;-90
2023/10/15 08:30:12;;;;;;;3.83;1.37;;;9.60;1.00;;;;;;4962873;29;20482;-91
2023/10/15 08:32:40;;;;;;;4.80;1.53;;;9.40;99.90;;;;;;4963092;29;20490;-91
2023/10/15 08:38:12;;;;;;;6.03;2.07;;;;;;;;;;4959125;29;20453;-90
2023/10/15 08:40:41;;;;;;;3.35;1.58;;;9.60;1.00;;;;;;4962563;29;20439;-90
2023/10/15 08:43:12;;;;;;;2.50;1.33;;;9.90;99.90;;;;;;4963683;28;20238;-90
2023/10/15 08:45:42;;;;;;;2.13;1.40;;;9.70;1.00;;;;;;4964342;29;20446;-89
2023/10/15 08:48:14;;;;;;;2.00;1.30;;;9.80;93.90;;;;;;4963981;29;20454;-91
2023/10/15 08:50:45;;;;;;;3.43;2.40;;;9.80;1.00;;;;;;4961470;29;20498;-90
2023/10/15 08:53:13;;;;;;;5.43;1.50;;;9.80;1.00;;;;;;4962168;28;20474;-90
2023/10/15 08:55:42;;;;;;;2.70;1.60;;;9.90;1.00;;;;;;4962342;29;20450;-91
2023/10/15 08:58:10;;;;;;;4.20;2.10;;;9.80;1.00;;;;;;4961841;29;20454;-90
2023/10/15 09:00:37;;;;;;;3.13;1.60;;;9.90;1.00;;;;;;4961442;29;20856;-90
2023/10/15 09:03:06;;;;;;;3.07;1.90;;;10.20;1.00;;;;;;4965815;28;20450;-92
2023/10/15 09:05:37;;;;;;;2.20;2.00;;;10.00;1.00;;;;;;4967391;29;20481;-90
2023/10/15 09:08:14;;;;;;;3.57;1.90;;;10.00;1.00;;;;;;4967476;29;20413;-90
2023/10/15 09:10:43;;;;;;;5.83;3.07;;;10.20;1.00;;;;;;4965019;29;20453;-90
2023/10/15 09:13:15;;;;;;;4.90;2.13;;;10.20;1.00;;;;;;4976021;28;20466;-89
2023/10/15 09:15:49;;;;;;;3.50;2.40;;;10.30;1.00;;;;;;4980342;28;20438;-90
2023/10/15 09:18:24;;;;;;;3.90;2.63;;;10.30;1.00;;;;;;4980627;28;20419;-89
2023/10/15 09:20:52;;;;;;;2.50;2.10;;;10.20;1.00;;;;;;4974983;28;20457;-91
2023/10/15 09:23:24;;;;;;;4.07;2.30;;;10.30;31.50;;;;;;4969506;28;20481;-89
2023/10/15 09:25:57;;;;;;;6.10;2.07;;;10.20;1.00;;;;;;4972845;29;21043;-91
2023/10/15 09:28:36;;;;;;;2.87;1.47;;;10.50;23.90;;;;;;4977162;28;20453;-91
2023/10/15 09:31:05;;;;;;;3.23;1.40;;;;;;;;;;4979801;28;20496;-91
2023/10/15 09:33:36;;;;;;;2.43;1.30;;;10.40;1.00;;;;;;4979715;28;20486;-90
2023/10/15 09:36:07;;;;;;;5.43;2.30;;;10.50;1.00;;;;;;4979508;28;20441;-90
2023/10/15 09:38:36;;;;;;;3.87;1.93;;;10.50;1.00;;;;;;4979290;28;20415;-90
2023/10/15 09:41:05;;;;;;;2.97;1.50;;;10.50;1.00;;;;;;4975733;29;20442;-90
2023/10/15 09:43:35;;;;;;;3.93;1.50;;;10.60;1.00;;;;;;4973834;28;20966;-90
2023/10/15 09:46:03;;;;;;;3.83;1.30;;;10.60;1.00;;;;;;4975524;29;20445;-90
2023/10/15 09:48:33;;;;;;;2.63;1.50;;;10.50;1.00;;;;;;4976768;29;20465;-91
2023/10/15 09:51:04;;;;;;;3.53;1.20;;;10.40;1.00;;;;;;4970415;29;21095;-91
2023/10/15 09:53:36;;;;;;;4.03;1.40;;;10.30;1.00;;;;;;4966932;28;20490;-91
2023/10/15 09:56:07;;;;;;;1.73;1.40;;;10.30;1.00;;;;;;4965602;29;20449;-91
2023/10/15 09:58:42;;;;;;;5.53;1.40;;;10.50;1.00;;;;;;4965942;29;20450;-89
2023/10/15 10:01:25;;;;;;;2.37;1.40;;;10.40;1.00;;;;;;4968850;29;20449;-91
2023/10/15 10:04:25;;;;;;;2.87;1.53;;;10.50;1.00;;;;;;4974031;28;20478;-89
2023/10/15 10:07:47;;;;;;;7.93;1.70;;;10.30;1.00;;;;;;4968683;29;20419;-90
2023/10/15 10:10:56;;;;;;;2.60;1.10;;;10.50;1.00;;;;;;4967648;29;20900;-91
2023/10/15 10:14:04;;;;;;;2.33;1.20;;;10.60;1.00;;;;;;4974300;28;20458;-90
2023/10/15 10:16:32;;;;;;;1.90;1.30;;;10.50;1.00;;;;;;4958518;28;20477;-91
2023/10/15 10:19:02;;;;;;;2.00;1.87;;;;;;;;;;4984021;28;20449;-90
2023/10/15 10:21:34;;;;;;;3.63;1.87;;;10.40;1.00;;;;;;4983738;28;20535;-90
2023/10/15 10:25:06;;;;;;;3.53;1.43;;;10.40;1.00;;;;;;4976926;28;20501;-91
2023/10/15 10:27:42;;;;;;;1.53;1.43;;;10.30;1.00;;;;;;4974829;29;20441;-91
2023/10/15 10:30:28;;;;;;;3.83;1.20;;;10.50;1.00;;;;;;4972900;29;20465;-91
2023/10/15 11:08:35;;;;;;;3.37;1.40;;;10.70;1.00;;;;;;4802924;23;20475;-90
2023/10/15 11:11:03;;;;;;;7.43;1.00;;;;;;;;;;4981863;28;20672;-90
2023/10/15 11:13:30;;;;;;;2.70;1.40;;;10.90;1.00;;;;;;4982167;28;20426;-90
2023/10/15 11:15:59;;;;;;;4.40;1.10;;;10.50;1.00;;;;;;4982752;28;20449;-90
2023/10/15 11:18:47;;;;;;;6.10;1.23;;;10.90;1.00;;;;;;4982112;28;20551;-91
2023/10/15 11:21:17;;;;;;;2.17;1.97;;;;;;;;;;4976546;28;20458;-89
2023/10/15 11:23:45;;;;;;;1.77;1.60;;;10.80;1.00;;;;;;4982656;28;20430;-88
2023/10/15 11:26:12;;;;;;;2.77;1.20;;;11.20;1.00;;;;;;4981709;28;20465;-89
2023/10/15 11:28:39;;;;;;;1.27;1.17;;;11.00;1.00;;;;;;4982107;28;20472;-90
2023/10/15 11:31:07;;;;;;;4.50;1.00;;;11.10;1.00;;;;;;4982210;28;20465;-89
2023/10/15 11:33:34;;;;;;;3.00;1.20;;;11.20;1.00;;;;;;4982189;28;20501;-89
2023/10/15 11:36:06;;;;;;;4.07;2.20;;;11.20;1.00;;;;;;4982540;28;20462;-89
2023/10/15 11:38:34;;;;;;;3.27;1.40;;;;;;;;;;4981530;28;20465;-89
2023/10/15 11:41:03;;;;;;;1.70;1.27;;;11.10;1.00;;;;;;4982429;28;20453;-91
2023/10/15 11:43:32;;;;;;;1.60;1.50;;;11.10;1.00;;;;;;4974225;29;20477;-91
2023/10/15 11:46:07;;;;;;;1.60;1.50;;;11.50;1.00;;;;;;4970439;29;20458;-90
2023/10/15 11:48:33;;;;;;;2.20;1.43;;;10.90;1.00;;;;;;4968120;28;20901;-91
2023/10/15 11:51:01;;;;;;;1.40;1.30;;;;;;;;;;4967889;29;20501;-90
2023/10/15 11:53:30;;;;;;;5.20;1.33;;;10.90;1.00;;;;;;4969080;29;20510;-91
2023/10/15 11:55:59;;;;;;;1.30;1.20;;;10.90;1.00;;;;;;4971317;29;20442;-91
2023/10/15 11:58:31;;;;;;;1.10;1.00;;;10.80;1.00;;;;;;4971234;28;20452;-90
2023/10/15 12:00:59;;;;;;;4.43;1.60;;;;;;;;;;4970995;29;20426;-92
2023/10/15 12:03:26;;;;;;;1.90;1.50;;;10.70;1.00;;;;;;4969766;29;20450;-90
2023/10/15 12:05:53;;;;;;;4.70;1.60;;;10.60;1.00;;;;;;4967075;29;20486;-89
2023/10/15 12:08:25;;;;;;;1.17;1.07;;;;;;;;;;4968177;28;20450;-90
2023/10/15 12:10:51;;;;;;;2.13;1.03;;;10.70;1.00;;;;;;4968647;29;20486;-91
2023/10/15 12:13:19;;;;;;;2.70;1.20;;;10.50;1.00;;;;;;4967729;29;20480;-91
2023/10/15 12:15:48;;;;;;;1.13;1.00;;;10.60;1.00;;;;;;4973507;29;20513;-91
2023/10/15 12:18:15;;;;;;;2.30;1.23;;;10.80;1.00;;;;;;4978590;28;20454;-91
2023/10/15 12:20:45;;;;;;;1.57;1.33;;;10.90;1.00;;;;;;4972078;29;20474;-89
2023/10/15 12:23:24;;;;;;;1.93;1.27;;;10.40;1.00;;;;;;4972438;29;20411;-90
2023/10/15 12:25:53;;;;;;;1.50;1.00;;;;;;;;;;4973195;29;20438;-90
2023/10/15 12:28:38;;;;;;;4.53;1.87;;;10.50;1.00;;;;;;4971139;28;20469;-90
2023/10/15 12:31:11;;;;;;;3.40;1.40;;;9.80;1.00;;;;;;4970115;29;20478;-91
2023/10/15 12:34:01;;;;;;;1.93;1.30;;;10.40;1.00;;;;;;4978237;29;20410;-91
2023/10/15 12:36:34;;;;;;;1.93;0.83;;;10.80;1.00;;;;;;4969940;29;20424;-90
2023/10/15 12:39:11;;;;;;;1.57;1.03;;;10.70;1.00;;;;;;4971508;28;20454;-90
2023/10/15 12:41:49;;;;;;;2.93;1.50;;;10.90;1.00;;;;;;4968066;29;20434;-90
2023/10/15 12:44:30;;;;;;;5.23;1.43;;;10.90;1.00;;;;;;4970567;29;20453;-91
2023/10/15 12:47:28;;;;;;;1.70;1.10;;;11.00;1.00;;;;;;4971215;29;20453;-92
2023/10/15 12:50:14;;;;;;;1.90;1.00;;;11.10;1.00;;;;;;4967871;28;20478;-91
2023/10/15 12:52:46;;;;;;;1.27;0.80;;;11.10;1.00;;;;;;4976894;29;20422;-91
2023/10/15 12:55:19;;;;;;;5.73;1.10;;;11.30;1.00;;;;;;4966949;29;20521;-91
2023/10/15 12:57:50;;;;;;;1.23;0.90;;;;;;;;;;4964084;29;20474;-91
2023/10/15 13:00:32;;;;;;;2.43;1.30;;;11.40;99.90;;;;;;4971904;28;20474;-91
2023/10/15 13:03:15;;;;;;;3.43;1.50;;;11.40;99.90;;;;;;4980132;28;20418;-90
2023/10/15 13:05:43;;;;;;;3.53;1.17;;;;;;;;;;4980539;28;20409;-92
2023/10/15 13:08:14;;;;;;;1.20;0.90;;;;;;;;;;4972102;28;20430;-91
2023/10/15 13:10:46;;;;;;;2.07;1.47;;;11.30;99.90;;;;;;4968786;29;20481;-90
2023/10/15 13:13:32;;;;;;;1.90;1.13;;;11.20;99.90;;;;;;4972514;29;20446;-89
2023/10/15 13:16:08;;;;;;;3.10;1.50;;;10.80;99.90;;;;;;4968294;29;20438;-91
2023/10/15 13:19:04;;;;;;;1.10;1.00;;;10.50;1.00;;;;;;4962321;28;20470;-90
2023/10/15 13:22:11;;;;;;;1.73;1.30;;;10.40;1.00;;;;;;4964811;29;20443;-91
2023/10/15 13:24:49;;;;;;;2.17;1.20;;;10.30;1.00;;;;;;4967603;29;20453;-90
2023/10/15 13:28:03;;;;;;;3.27;1.60;;;10.40;26.70;;;;;;4970922;29;20454;-90
2023/10/15 13:31:22;;;;;;;4.60;1.10;;;10.60;1.00;;;;;;4967011;28;20486;-90
2023/10/15 13:34:12;;;;;;;3.05;1.08;;;10.80;1.00;;;;;;4922604;29;20451;-90
2023/10/15 13:37:01;;;;;;;1.27;1.10;;;10.90;1.00;;;;;;4965296;29;20273;-91
2023/10/15 13:39:32;;;;;;;2.33;1.33;;;;;;;;;;4968199;28;20482;-90
2023/10/15 13:42:26;;;;;;;3.00;1.03;;;11.00;1.00;;;;;;4965864;29;20450;-90
2023/10/15 13:45:17;;;;;;;2.37;1.23;;;11.10;1.00;;;;;;4969225;28;20464;-90
2023/10/15 13:48:01;;;;;;;4.73;1.47;;;11.00;1.00;;;;;;4979864;28;20450;-90
2023/10/15 13:51:13;;;;;;;1.77;1.03;;;11.00;1.00;;;;;;4977498;28;20500;-90
2023/10/15 13:54:29;;;;;;;4.73;2.70;;;11.10;1.00;;;;;;4979279;28;20461;-92
2023/10/15 15:34:32;;;;;;;3.10;1.80;;;10.50;1.00;;;;;;5487614;23;20526;-94
2023/10/15 15:37:21;;;;;;;1.53;1.10;;;10.40;99.90;;;;;;4982329;28;20414;-93
2023/10/15 15:40:05;;;;;;;1.70;1.00;;;10.40;99.90;;;;;;4982168;28;20460;-94
2023/10/15 15:42:33;;;;;;;1.63;1.23;;;;;;;;;;4981962;28;20430;-93
2023/10/15 15:45:12;;;;;;;2.60;2.20;;;10.40;99.90;;;;;;4982103;28;20442;-92
2023/10/15 15:48:01;;;;;;;;;;;;;;;;;;;;;
2023/10/15 15:57:06;;;;;;;4.47;2.20;;;10.30;99.90;;;;;;4999517;28;20444;-88
2023/10/15 15:59:40;;;;;;;3.43;1.30;;;10.20;99.90;;;;;;4961407;28;20469;-88
2023/10/15 16:16:34;;;;;;;3.33;1.60;;;9.80;1.00;;;;;;4840721;29;20488;-89
2023/10/15 16:19:19;;;;;;;3.80;1.80;;;9.80;1.00;;;;;;4981967;28;20444;-87
2023/10/15 16:29:06;;;;;;;;;;;;;;;;;;;;;
2023/10/15 16:37:33;;;;;;;2.43;1.60;;;9.80;1.00;;;;;;4959276;28;20471;-88
2023/10/15 17:07:47;;;;;;;7.50;3.47;;;9.90;1.00;;;;;;4962350;28;20450;-87
2023/10/15 17:24:50;;;;;;;3.90;1.47;;;9.90;1.00;;;;;;4929797;28;20469;-88
2023/10/15 17:31:49;;;;;;;6.00;1.30;;;10.00;1.00;;;;;;4976301;28;20465;-89
2023/10/15 17:38:00;;;;;;;3.37;1.57;;;9.70;1.00;;;;;;4974807;28;20445;-89
2023/10/15 17:43:35;;;;;;;5.40;1.80;;;9.50;1.00;;;;;;4990316;28;20453;-87
2023/10/15 17:49:23;;;;;;;1.90;1.30;;;9.50;1.00;;;;;;4994349;28;20552;-88
2023/10/15 17:51:57;;;;;;;2.83;1.60;;;9.50;1.00;;;;;;4986603;28;20485;-88
2023/10/15 17:54:55;;;;;;;4.57;1.67;;;9.50;1.00;;;;;;4984409;28;20456;-88
2023/10/15 17:57:54;;;;;;;2.47;1.57;;;9.50;1.00;;;;;;4983534;28;20441;-88
2023/10/15 18:06:47;;;;;;;1.90;0.97;;;9.40;1.00;;;;;;4988314;28;20457;-88
2023/10/15 18:09:57;;;;;;;1.17;1.07;;;9.40;1.00;;;;;;4983562;28;20564;-87
2023/10/15 18:29:22;;;;;;;3.33;1.10;;;9.40;99.90;;;;;;4924805;29;20471;-87
2023/10/15 18:32:44;;;;;;;2.33;1.00;;;9.40;1.00;;;;;;4933865;29;20504;-87
2023/10/15 18:35:28;;;;;;;1.60;1.20;;;9.30;1.00;;;;;;4991918;28;20496;-88
2023/10/15 18:38:28;;;;;;;3.70;1.43;;;9.30;1.00;;;;;;4993831;28;20445;-90
2023/10/15 18:47:55;;;;;;;2.37;1.20;;;9.10;1.00;;;;;;4997081;28;20492;-88
2023/10/15 18:51:17;;;;;;;5.20;3.60;;;9.10;1.00;;;;;;4991611;28;20978;-88
2023/10/15 18:54:26;;;;;;;1.53;1.30;;;9.20;99.90;;;;;;4992377;28;20452;-89
2023/10/15 19:07:30;;;;;;;2.43;1.43;;;8.80;1.00;;;;;;4902726;29;20491;-89
2023/10/15 19:10:14;;;;;;;4.13;1.80;;;8.70;1.00;;;;;;4949810;29;20502;-88
2023/10/15 19:16:00;;;;;;;4.00;1.87;;;8.70;1.00;;;;;;4919970;29;20478;-89
2023/10/15 19:18:45;;;;;;;;;;;;;;;;;;;;;
2023/10/15 19:21:29;;;;;;;1.70;1.60;;;8.60;1.00;;;;;;5001578;28;20456;-89
2023/10/15 19:34:11;;;;;;;3.40;1.93;;;8.50;1.00;;;;;;4879959;28;20491;-86
2023/10/15 19:40:24;;;;;;;4.60;1.80;;;8.40;99.90;;;;;;4906480;29;20495;-87
2023/10/15 19:43:01;;;;;;;3.73;1.50;;;8.60;1.00;;;;;;4990723;28;20639;-88
2023/10/15 19:46:20;;;;;;;6.73;1.60;;;8.60;1.00;;;;;;4987619;28;20536;-87
2023/10/15 21:47:12;;;;;;;2.20;1.17;;;8.00;99.90;;;;;;1336844;26;20491;-88
2023/10/15 21:50:45;;;;;;;3.83;1.30;;;9.40;99.90;;;;;;4993156;28;20577;-87
2023/10/15 22:11:54;;;;;;;2.70;1.30;;;7.80;1.00;;;;;;4806629;29;20438;-87
2023/10/15 22:14:22;;;;;;;6.47;1.87;;;;;;;;;;4887296;29;20890;-86
2023/10/15 22:16:51;;;;;;;3.33;1.53;;;;;;;;;;4906106;29;20495;-87
2023/10/15 22:19:22;;;;;;;2.13;1.83;;;;;;;;;;4981804;28;20511;-86
2023/10/15 22:22:07;;;;;;;2.63;1.57;;;7.70;1.00;;;;;;4986174;28;20435;-88
2023/10/15 22:24:35;;;;;;;1.50;1.40;;;;;;;;;;4986051;28;20435;-87
2023/10/15 22:27:12;;;;;;;1.23;1.10;;;7.70;1.00;;;;;;4984896;28;20510;-87
2023/10/15 22:29:50;;;;;;;1.63;1.30;;;7.70;1.00;;;;;;4992445;28;20475;-87
2023/10/15 22:32:30;;;;;;;15.67;1.50;;;;;;;;;;4988811;28;20571;-87
2023/10/15 22:34:59;;;;;;;3.73;1.70;;;;;;;;;;4990738;28;20453;-86
2023/10/15 22:37:28;;;;;;;2.47;1.30;;;;;;;;;;4987632;28;20453;-86
2023/10/15 22:39:55;;;;;;;5.93;1.67;;;;;;;;;;4986392;28;20864;-88
2023/10/15 22:42:38;;;;;;;9.20;1.63;;;7.40;1.00;;;;;;4985613;28;20439;-87
2023/10/15 22:45:08;;;;;;;3.00;1.50;;;5.40;99.90;;;;;;4984697;28;21034;-87
2023/10/15 22:47:35;;;;;;;2.63;1.37;;;;;;;;;;4984154;28;20423;-87
2023/10/15 22:50:08;;;;;;;4.20;1.47;;;7.50;99.90;;;;;;4992728;28;20477;-87
2023/10/15 22:52:50;;;;;;;5.33;1.37;;;7.60;99.90;;;;;;4996016;28;20469;-87
2023/10/15 22:55:27;;;;;;;2.37;1.33;;;7.60;99.90;;;;;;4991129;28;20428;-88
2023/10/15 22:58:02;;;;;;;5.90;1.20;;;7.50;99.90;;;;;;4994494;28;20360;-89
2023/10/15 23:00:39;;;;;;;3.47;1.30;;;7.60;99.90;;;;;;4999892;28;20483;-88
2023/10/15 23:03:16;;;;;;;2.57;1.60;;;7.50;99.90;;;;;;5000223;28;20500;-88
2023/10/15 23:05:47;;;;;;;2.53;1.30;;;7.50;99.90;;;;;;4988650;28;20455;-87
2023/10/15 23:08:35;;;;;;;2.40;1.50;;;7.30;1.00;;;;;;4986556;28;20449;-87
2023/10/15 23:11:06;;;;;;;2.87;1.30;;;7.50;1.00;;;;;;4984347;28;20276;-87
2023/10/15 23:13:37;;;;;;;3.10;1.40;;;7.40;1.00;;;;;;4988112;28;20472;-86
2023/10/15 23:16:14;;;;;;;2.73;1.53;;;7.40;1.00;;;;;;4999666;28;20461;-86
2023/10/15 23:18:45;;;;;;;3.60;1.60;;;7.40;1.00;;;;;;5000364;28;20551;-86
2023/10/15 23:21:17;;;;;;;4.57;1.37;;;;;;;;;;4998771;28;20472;-87
2023/10/15 23:23:44;;;;;;;1.73;1.50;;;;;;;;;;4984187;28;20429;-86
2023/10/15 23:26:17;;;;;;;2.27;1.70;;;7.30;1.00;;;;;;4983843;28;20519;-87
2023/10/15 23:28:48;;;;;;;5.63;1.67;;;7.30;1.00;;;;;;4990926;28;20417;-86
2023/10/15 23:31:17;;;;;;;2.60;1.17;;;;;;;;;;4998524;28;20807;-86
2023/10/15 23:33:44;;;;;;;6.50;2.73;;;;;;;;;;4997808;28;20540;-87